Pagina principale
METAR-TAF:

METAR-TAF

Aeroporti :

Aeroporto di Cervia-Pisignano

Cervia, Italia

latitudine: 44-13N, longitudine: 012-18E, altezza: 6 m

Osservazione

Il bollettino è stato emesso 1 ora e 3 minuti fa, alle 09:55 UTC
Vento 5 kt da ovest/nord-ovest
Temperature 12°C
Umidità 76%
Pressione 1022 hPa
Visibilità 10 km o più
Nuvoloso ad un'altezza di 4000 ft

METAR: LIPC 260955Z 29005KT 9999 BKN040 12/08 Q1022 RMK OVC VIS MIN 9999 WIND THR11 30005KT WIND THR29 30006KT BLU

Ora: 12:58 (10:58 UTC)

Previsione

Il bollettino è stato emesso 2 ore e 58 minuti fa, alle 08:00 UTC
Previsione valida dal 26 alle 09 UTC al 26 alle 18 UTC
Vento 5 kt da ovest/nord-ovest
Visibilità 10 km o più
Nubi sparse ad un'altezza di 2500 ft
Nuvoloso ad un'altezza di 4000 ft

TAF: LIPC 260800Z 2609/2618 30005KT 9999 SCT025 BKN040

Osservazioni e previsioni meteorologiche di più di 4000 aeroporti (messaggi METAR e TAF).

Le stazioni disponibili sono rappresentate dai dischi gialli e rossi sulla carta.

Puntare il mouse per vedere il nome della stazione.

Clicca sopra per visualizzare le osservazioni e previsioni meteorologiche.

Per cambiare la mappa : fare clic sui pulsanti verdi con una croce nera per ingrandire, il pulsante verde con un trattino per diminuire, o sulla freccia verde per le mappe adiacenti.


METAR-TAF: